Date,TemperatureHighF,TemperatureAvgF,TemperatureLowF,DewpointHighF,DewpointAvgF,DewpointLowF,HumidityHigh,HumidityAvg,HumidityLow,PressureMaxIn,PressureMinIn,WindSpeedMaxMPH,WindSpeedAvgMPH,GustSpeedMaxMPH,PrecipitationSumIn
2014-1-28,5,-1,-4,-4,-9,-11,75,69,65,30.20,30.14,7,3,12,0.00
2014-1-29,16,7,-5,6,-1,-10,85,72,60,30.16,30.06,10,4,20,0.00
2014-1-30,26,18,6,23,10,1,92,74,59,30.11,29.77,6,2,16,0.00
2014-1-31,30,28,25,27,22,19,90,81,73,30.12,29.81,4,1,9,0.00
2014-2-1,32,28,23,32,26,19,98,94,78,30.12,29.78,2,0,5,0.00
2014-2-2,23,21,14,19,16,11,93,83,73,30.25,30.11,6,2,14,0.00
2014-2-3,23,12,-1,13,7,-3,93,80,59,30.36,30.23,4,0,7,0.00
2014-2-4,23,14,-2,16,8,-5,91,79,63,30.42,30.11,3,0,8,0.00
2014-2-5,23,17,4,22,13,1,95,85,67,30.33,29.92,5,1,12,0.00
2014-2-6,19,10,0,14,5,-3,91,81,69,30.34,30.22,7,3,14,0.00
2014-2-7,12,6,0,3,0,-5,85,75,62,30.29,30.24,8,3,16,0.00
2014-2-8,19,10,-2,11,4,-100,89,80,70,30.29,30.14,3,0,6,0.00
2014-2-9,22,16,11,15,12,8,90,82,66,30.14,30.00,7,2,11,0.00
2014-2-10,19,13,6,12,8,4,93,80,66,30.35,30.13,5,2,10,0.00
2014-2-11,15,8,-7,5,1,-10,86,71,54,30.47,30.35,3,1,7,0.00
2014-2-12,22,14,-12,9,5,-15,89,70,53,30.42,30.06,2,0,8,0.00
2014-2-13,34,22,9,15,11,6,88,65,38,30.07,29.49,3,0,7,0.02
2014-2-14,25,23,19,24,19,14,94,83,70,29.78,29.44,6,3,17,0.02
2014-2-15,20,13,5,18,5,-100,90,73,60,30.03,29.78,5,2,12,0.00
2014-2-16,25,14,-1,18,10,-4,91,82,71,30.33,29.93,5,1,11,0.00
2014-2-17,19,15,-1,18,10,-4,95,79,64,30.34,29.60,6,3,15,0.00
2014-2-18,39,29,19,31,24,17,95,81,63,29.97,29.60,9,2,12,0.13
2014-2-19,44,38,30,33,30,28,94,74,53,30.03,29.61,8,3,15,0.07
2014-2-20,42,32,23,42,31,22,100,96,86,30.06,29.40,6,2,13,0.25
2014-2-21,44,34,30,44,26,14,100,73,51,29.74,29.39,12,8,28,0.23
2014-2-22,35,32,26,29,16,-100,87,55,43,29.97,29.72,11,6,23,0.00
2014-2-23,30,24,19,19,14,10,80,66,54,30.05,29.96,11,4,20,0.00
2014-2-24,21,19,14,14,12,10,88,73,66,30.15,30.02,11,6,21,0.00
2014-2-25,21,16,8,16,10,4,90,76,67,30.15,29.98,7,3,14,0.00
2014-2-26,14,9,1,4,1,-3,88,69,58,30.08,29.59,9,4,17,0.00
2014-2-27,12,6,-6,9,-2,-10,87,69,47,30.18,29.49,10,4,18,0.00
2014-2-28,18,6,-15,9,-3,-19,85,68,47,30.28,30.07,3,1,12,0.00
2014-3-1,25,19,13,21,14,-100,92,84,77,30.24,30.03,4,0,10,0.00
2014-3-2,17,10,0,14,4,-4,93,77,60,30.34,30.23,4,1,8,0.00
2014-3-3,16,4,-5,-1,-4,-8,88,69,44,30.44,30.32,3,0,8,0.00
2014-3-4,20,11,-5,5,-1,-9,84,60,43,30.37,30.18,2,0,5,0.00
2014-3-5,24,18,9,14,10,5,87,69,58,30.49,30.24,5,1,11,0.00
2014-3-6,30,17,5,15,9,3,93,72,51,30.48,30.16,7,1,12,0.02
2014-3-7,47,29,6,27,19,4,91,69,43,30.15,29.89,3,0,8,0.01
2014-3-8,38,30,19,33,23,-100,94,80,69,30.16,29.90,2,1,8,0.06
2014-3-9,35,28,15,28,20,14,94,74,54,30.20,29.83,7,2,14,0.01
2014-3-10,52,43,33,38,34,28,81,70,53,29.83,29.56,7,4,14,0.00
2014-3-11,51,42,36,38,36,33,97,78,52,29.76,29.63,3,1,9,0.13
2014-3-12,37,22,3,36,20,1,98,90,76,30.01,29.59,5,2,17,0.01
2014-3-13,25,13,-2,13,4,-6,90,69,39,30.12,29.96,5,1,9,0.00
2014-3-14,51,36,14,36,27,10,90,70,52,29.96,29.54,14,4,25,0.20
2014-3-15,39,34,26,32,24,14,83,68,56,30.26,29.70,10,4,18,0.03
2014-3-16,26,17,11,15,5,-100,75,62,47,30.38,30.22,5,2,13,0.00
2014-3-17,32,19,3,15,4,-100,89,58,35,30.18,29.90,6,2,10,0.00
2014-3-18,45,35,18,32,27,14,92,71,58,30.01,29.87,6,2,12,0.00
2014-3-19,43,38,33,43,36,28,99,92,79,29.88,29.59,9,3,19,0.20
2014-3-20,35,33,27,32,24,-100,93,74,62,30.05,29.80,11,5,18,0.01
2014-3-21,43,31,17,32,22,-100,97,75,51,30.08,29.69,6,1,12,0.04
2014-3-22,38,34,27,36,29,20,99,82,64,30.21,29.67,6,3,14,0.24
2014-3-23,26,20,13,18,8,-100,73,63,53,30.35,30.21,8,2,13,0.00
2014-3-24,28,21,10,16,11,7,92,67,45,30.32,30.08,8,2,14,0.00
2014-3-25,28,22,14,21,15,11,92,75,52,30.14,29.90,10,3,18,0.00
2014-3-26,32,21,7,20,10,5,93,66,44,30.32,30.15,4,1,10,0.00
2014-3-27,40,33,26,37,27,18,91,78,66,30.16,29.63,3,0,10,0.12
2014-3-28,48,41,36,44,36,31,90,84,79,30.19,29.55,11,4,21,0.01
2014-3-29,36,34,30,32,29,25,89,82,75,30.20,30.07,3,2,11,0.00
2014-3-30,47,35,24,27,22,-100,90,65,40,30.21,30.11,3,1,10,0.00
2014-3-31,58,42,24,36,28,22,94,64,38,30.19,29.98,3,1,8,0.00
2014-4-1,57,46,37,43,32,-100,83,61,47,30.01,29.72,12,4,25,0.01
2014-4-2,53,41,32,30,28,25,78,60,38,30.17,30.03,4,1,9,0.01
2014-4-3,40,36,32,34,28,18,91,76,52,30.18,29.81,6,2,14,0.22
2014-4-4,45,38,34,45,37,32,100,94,85,29.77,29.43,12,4,22,0.16
2014-4-5,46,37,29,32,26,22,92,66,41,30.18,29.72,10,5,22,0.01
2014-4-6,55,39,21,31,23,-100,97,63,29,30.20,30.03,3,0,7,0.00
2014-4-7,53,41,28,40,31,26,97,70,37,30.02,29.49,4,1,10,0.26
2014-4-8,59,48,37,39,35,31,98,63,39,29.81,29.49,6,2,14,0.06
2014-4-9,55,45,34,36,27,-100,81,53,34,30.01,29.82,6,1,12,0.00
2014-4-10,67,55,44,47,40,33,73,58,42,29.91,29.67,9,3,20,0.00
2014-4-11,65,50,32,41,32,23,98,57,23,30.04,29.90,7,1,16,0.00
2014-4-12,70,54,36,52,40,32,92,62,27,30.09,29.80,5,1,13,0.00
2014-4-13,74,62,50,59,50,-100,88,72,56,29.89,29.64,10,3,22,0.00
2014-4-14,68,54,29,57,45,28,96,73,54,29.83,29.41,10,4,23,0.03
2014-4-15,31,27,23,28,19,13,97,73,49,30.22,29.81,8,4,16,0.01
2014-4-16,43,31,17,25,19,14,94,65,39,30.43,30.23,4,1,10,0.02
2014-4-17,64,48,30,41,30,21,81,53,29,30.35,30.20,5,2,11,0.01
2014-4-18,61,53,46,47,41,36,97,66,42,30.32,30.23,5,1,12,0.01
2014-4-19,57,45,30,39,30,25,90,59,30,30.46,30.33,6,2,11,0.01
2014-4-20,73,52,31,41,30,-100,94,54,16,30.37,30.11,5,1,9,0.00
2014-4-21,76,60,41,55,43,36,91,58,31,30.11,29.76,6,1,14,0.02
2014-4-22,59,49,39,57,41,30,97,75,58,29.95,29.69,10,4,22,0.06
2014-4-23,54,42,34,31,27,16,83,61,23,30.13,29.96,4,2,12,0.02
2014-4-24,54,46,39,31,23,18,69,43,26,30.17,29.86,6,1,11,0.00
2014-4-25,56,46,42,45,36,21,95,71,39,29.88,29.67,5,2,11,0.21
2014-4-26,54,46,38,39,36,33,98,71,49,30.10,29.79,7,2,15,0.03
2014-4-27,53,41,31,36,30,-100,93,69,47,30.19,30.08,6,2,13,0.00
2014-4-28,51,48,43,39,34,32,67,59,50,30.10,29.79,11,6,21,0.00
2014-4-29,75,59,45,60,48,37,100,73,33,29.80,29.57,6,2,13,0.75
2014-4-30,68,58,52,55,52,49,97,81,56,29.82,29.71,4,1,10,0.22
2014-5-1,53,47,42,49,41,38,95,80,62,29.79,29.73,9,3,19,0.32
2014-5-2,52,47,44,46,44,42,97,91,75,29.80,29.72,6,3,14,0.17
2014-5-3,58,50,43,47,42,35,98,77,48,29.84,29.64,11,4,23,0.09
2014-5-4,54,49,40,42,34,-100,85,60,40,30.09,29.83,11,2,21,0.00
2014-5-5,54,45,36,43,38,33,93,76,57,30.10,29.97,2,0,5,0.00
2014-5-6,62,49,33,42,36,32,99,67,40,30.09,30.01,5,1,11,0.00
2014-5-7,49,48,47,38,36,35,65,64,64,30.06,30.05,2,2,6,0.00
2014-5-13,67,64,60,66,62,57,96,91,87,30.06,29.97,5,2,12,0.95
2014-5-14,60,56,48,57,52,46,95,87,74,30.15,29.98,5,1,12,0.13
2014-5-15,50,47,42,50,45,37,100,95,83,30.00,29.71,6,2,11,0.49
2014-5-16,53,44,35,40,37,33,95,77,57,30.03,29.96,3,1,8,0.01
2014-5-17,53,46,40,41,38,33,94,74,47,30.18,30.02,6,1,14,0.00
2014-5-18,66,51,35,41,35,-100,100,62,32,30.25,30.18,5,1,11,0.00
2014-5-19,71,57,41,47,35,-100,97,51,30,30.30,30.13,4,0,8,0.00
2014-5-20,79,63,51,65,52,-100,94,70,55,30.23,29.86,3,0,7,0.06
2014-5-21,82,72,61,68,62,52,99,73,40,29.88,29.80,5,1,11,0.20
2014-5-22,69,62,54,58,50,-100,91,67,50,30.07,29.85,5,1,14,0.10
2014-5-23,68,57,48,52,47,43,92,70,53,30.16,30.07,3,1,9,0.00
2014-5-24,77,62,47,54,50,46,100,70,39,30.23,30.13,1,0,6,0.00
2014-5-25,82,65,49,58,51,-100,100,67,34,30.19,30.06,2,0,6,0.00
2014-5-26,84,71,53,65,58,52,99,66,39,30.09,29.92,4,1,9,0.00
2014-5-27,81,72,64,70,67,63,99,83,63,29.97,29.85,5,1,12,0.48
2014-5-28,68,64,59,68,63,56,100,97,80,30.10,29.90,2,0,4,0.63
2014-5-29,76,63,50,59,55,50,100,77,52,30.16,30.07,2,0,7,0.01
2014-5-30,82,66,51,58,54,51,100,71,39,30.23,30.13,0,0,4,0.00
2014-5-31,83,68,55,59,56,54,98,70,43,30.26,30.15,2,0,6,0.00
2014-6-1,86,67,50,61,51,-100,91,62,35,30.21,29.98,1,0,4,0.00
2014-6-2,82,72,62,71,65,56,100,81,63,30.01,29.84,4,1,11,0.66
2014-6-3,75,70,62,68,60,52,100,75,50,29.94,29.83,8,2,21,0.70
2014-6-4,64,59,54,61,57,53,99,93,81,29.94,29.83,0,0,2,0.28
2014-6-5,73,62,48,56,50,46,100,70,38,29.97,29.85,4,0,12,0.02
2014-6-6,80,64,46,56,50,45,99,66,32,30.03,29.96,2,0,6,0.00
2014-6-7,84,68,52,62,53,48,100,66,31,30.07,29.89,1,0,7,0.00
2014-6-8,78,65,59,62,52,-100,98,69,40,30.00,29.82,2,0,7,0.09
2014-6-9,82,67,54,60,56,53,99,71,40,30.03,29.93,1,0,4,0.01
2014-6-10,75,67,55,64,58,53,94,76,63,29.97,29.88,1,0,6,0.00
2014-6-11,74,66,61,70,64,55,100,93,64,29.88,29.71,1,0,7,0.85
2014-6-12,75,68,64,68,66,64,100,91,71,29.78,29.71,3,0,7,0.08
2014-6-13,70,61,49,65,53,47,94,77,66,30.03,29.75,6,2,12,0.01
2014-6-14,75,58,43,53,48,42,100,74,39,30.15,30.03,3,0,6,0.00
2014-6-15,81,66,50,61,52,-100,99,71,45,30.14,29.93,1,0,8,0.00
2014-6-16,86,75,65,69,64,61,91,70,43,30.06,29.98,3,0,5,0.00
2014-6-17,85,76,63,72,67,62,100,77,56,30.02,29.83,6,2,13,0.00
2014-6-18,80,69,63,73,67,63,100,94,75,30.06,29.92,4,0,9,1.83
2014-6-19,75,69,64,69,66,64,100,93,77,30.15,30.01,2,0,4,0.79
2014-6-20,67,60,55,65,58,54,99,91,81,30.13,29.98,1,0,3,0.08
2014-6-21,80,66,55,62,57,52,99,76,45,30.01,29.91,1,0,5,0.01
2014-6-22,83,70,60,64,55,-100,91,64,47,29.98,29.90,1,0,5,0.00
2014-6-23,76,67,59,73,64,56,99,91,79,29.96,29.87,0,0,2,0.19
2014-6-24,76,71,67,72,69,67,100,94,80,29.90,29.87,2,0,7,0.22
2014-6-25,74,68,64,68,66,62,100,93,79,30.01,29.88,1,0,5,0.01
2014-6-26,80,68,59,65,63,59,100,85,58,30.08,30.01,0,0,3,0.00
2014-6-27,85,70,57,66,62,56,96,78,53,30.14,30.07,1,0,3,0.00
2014-6-28,88,72,61,73,68,61,100,87,57,30.14,30.04,0,0,4,0.01
2014-6-29,84,74,69,74,64,-100,99,80,59,30.06,29.93,2,0,8,0.01
2014-6-30,85,77,72,75,72,70,95,84,70,29.96,29.78,1,0,6,0.00
2014-7-1,82,74,65,72,66,64,100,80,55,29.76,29.65,5,1,9,0.45
2014-7-2,73,70,64,66,62,58,94,77,62,29.95,29.75,5,1,11,0.02
2014-7-3,71,62,53,60,55,49,97,80,50,30.14,29.93,2,1,10,0.03
2014-7-4,75,62,52,59,53,47,100,75,41,30.30,30.14,1,0,7,0.02
2014-7-5,78,64,50,58,54,49,100,74,41,30.31,30.10,1,0,5,0.00
2014-7-6,79,69,55,68,62,54,99,80,63,30.10,29.74,1,0,6,0.00
2014-7-7,82,76,68,72,69,62,98,82,55,29.75,29.68,4,2,11,0.27
2014-7-8,74,69,62,70,64,61,100,86,67,29.76,29.58,8,2,12,1.53
2014-7-9,73,67,61,62,60,57,98,79,61,29.98,29.77,2,0,6,0.01
2014-7-10,77,66,54,59,57,54,99,75,48,30.18,30.04,2,0,5,0.00
2014-7-11,80,69,55,65,60,55,100,76,49,30.25,30.14,0,0,4,0.00
2014-7-12,84,72,61,72,65,60,96,79,54,30.18,29.92,1,0,5,0.00
2014-7-13,79,73,65,71,67,62,98,85,56,29.90,29.80,3,1,8,0.15
2014-7-14,78,68,63,68,62,55,100,85,48,29.89,29.77,2,0,5,0.20
2014-7-15,66,62,57,63,58,54,100,87,67,29.90,29.72,4,1,12,0.33
2014-7-16,67,58,52,56,53,51,96,85,62,30.02,29.90,3,1,6,0.04
2014-7-17,73,63,51,58,54,50,99,76,50,30.15,30.02,4,0,7,0.00
2014-7-18,79,64,51,61,55,51,100,76,43,30.24,30.15,0,0,2,0.00
2014-7-19,76,65,57,65,60,54,95,85,68,30.16,30.04,2,0,6,0.00
2014-7-20,83,66,57,68,59,57,100,82,48,30.10,30.03,0,0,3,0.00
2014-7-21,88,73,59,67,62,59,100,73,45,30.16,30.07,0,0,3,0.00
2014-7-22,88,74,60,71,66,60,100,79,55,30.12,29.93,3,0,6,0.00
2014-7-23,80,70,64,71,62,57,91,76,65,30.09,29.89,2,1,8,0.00
2014-7-24,74,64,53,56,54,51,97,70,47,30.14,30.04,2,0,5,0.00
2014-7-25,76,66,51,60,57,51,100,73,51,30.10,29.96,1,0,7,0.00
2014-7-26,81,70,58,69,62,57,98,78,55,29.97,29.78,1,0,3,0.00
2014-7-27,83,66,59,71,63,59,100,88,63,29.80,29.58,3,0,10,0.43
2014-7-28,66,61,55,60,57,49,99,85,67,30.02,29.73,3,1,7,0.41
2014-7-29,70,57,47,61,53,47,100,88,69,30.02,29.96,3,0,6,0.37
2014-7-30,73,61,53,62,58,53,100,91,64,30.03,29.96,1,0,9,0.01
2014-7-31,77,65,51,63,58,50,99,81,62,30.05,30.00,3,0,6,0.01
2014-8-1,83,66,56,66,61,56,100,85,51,30.10,30.04,1,0,7,0.00
2014-8-2,81,69,58,66,62,57,99,81,59,30.15,30.08,0,0,2,0.00
2014-8-3,82,67,58,66,61,58,100,79,50,30.15,30.06,2,0,5,0.00
2014-8-4,83,66,58,68,64,58,100,92,58,30.11,30.06,3,0,5,0.20
2014-8-5,77,67,62,68,66,62,100,95,74,30.09,30.01,0,0,3,0.68
2014-8-6,77,66,58,66,61,58,100,84,54,30.07,30.01,0,0,3,0.49
2014-8-7,81,68,54,64,59,54,100,78,50,30.14,30.06,1,0,3,0.00
2014-8-8,78,68,59,66,61,57,99,79,56,30.16,30.10,2,0,6,0.00
2014-8-9,80,66,54,64,59,54,100,81,50,30.15,30.08,2,0,5,0.00
2014-8-10,83,68,57,68,61,56,100,80,56,30.11,29.99,2,0,5,0.00
2014-8-11,71,67,64,70,66,63,99,98,94,30.01,29.73,1,0,6,0.33
2014-8-12,74,66,61,68,63,59,100,92,76,29.86,29.68,6,1,13,0.14
2014-8-13,74,64,54,61,56,52,95,76,51,29.98,29.87,4,1,13,0.02
2014-8-14,67,59,50,55,50,47,93,74,49,30.07,29.98,4,1,11,0.00
2014-8-15,72,60,43,58,51,42,98,73,49,30.07,29.96,4,0,8,0.00
2014-8-16,78,63,49,68,57,48,100,82,59,29.98,29.85,5,1,10,0.00
2014-8-17,75,67,62,67,64,62,100,91,76,30.02,29.92,2,0,4,0.23
2014-8-18,79,67,58,68,63,57,99,87,66,29.98,29.83,2,0,4,0.02
2014-8-19,82,68,62,72,65,61,99,92,70,29.85,29.73,3,0,7,0.34
2014-8-20,80,70,62,72,66,62,100,89,67,29.96,29.77,4,0,8,0.14
2014-8-21,80,70,61,73,67,61,100,92,77,30.01,29.95,1,0,3,0.14
2014-8-22,84,74,68,74,71,68,100,91,71,30.01,29.93,1,0,6,0.00
2014-8-23,81,72,65,70,67,64,97,85,63,30.06,30.00,2,0,6,0.00
2014-8-24,79,69,65,70,66,64,99,88,74,30.10,30.05,1,0,4,0.00
2014-8-25,88,75,64,75,71,64,100,87,63,30.10,30.03,1,0,3,0.00
2014-8-26,85,72,68,74,70,68,100,94,70,30.10,30.01,12,0,23,0.32
2014-8-27,76,68,63,69,64,61,100,89,63,30.14,30.07,2,0,6,0.02
2014-8-28,74,64,57,62,57,50,98,80,45,30.17,30.09,1,0,4,0.00
2014-8-29,78,65,55,67,59,54,98,84,62,30.14,30.00,0,0,6,0.00
2014-8-30,84,74,66,73,68,64,94,82,67,30.01,29.84,2,0,5,0.00
2014-8-31,83,72,67,73,68,67,100,88,65,29.97,29.91,2,0,5,0.12
2014-9-1,83,73,66,74,70,66,100,94,72,29.93,29.73,5,0,14,0.14
2014-9-2,76,70,63,70,66,61,100,88,62,29.96,29.84,3,0,9,0.09
2014-9-3,84,67,56,67,61,56,100,85,53,30.06,29.96,1,0,5,0.00
2014-9-4,84,71,60,73,67,59,100,89,66,30.06,29.96,4,0,10,0.00
2014-9-5,92,79,70,77,72,67,97,81,54,30.04,29.87,4,1,17,0.01
2014-9-6,72,65,57,59,57,55,95,76,60,30.15,30.07,2,0,6,0.01
2014-9-7,78,61,49,58,53,49,100,78,41,30.24,30.15,1,0,3,0.01
2014-9-8,79,63,49,60,55,49,100,78,47,30.22,30.07,2,0,6,0.00
2014-9-9,79,65,55,66,59,54,100,83,50,30.08,29.98,1,0,5,0.00
2014-9-10,74,67,62,72,65,59,100,93,81,29.99,29.58,3,0,9,1.00
2014-9-11,71,55,50,70,52,47,96,88,80,30.22,29.61,9,2,14,0.12
2014-9-12,58,53,49,52,50,48,97,91,77,30.31,30.16,2,0,4,0.00
2014-9-13,56,50,42,53,47,41,99,88,65,30.35,30.11,4,1,10,0.35
2014-9-14,61,49,38,51,44,38,100,83,58,30.35,30.20,2,0,5,0.03
2014-9-15,61,51,40,54,48,40,100,92,74,30.21,30.07,0,0,3,0.03
2014-9-16,65,55,48,52,49,44,98,82,47,30.18,30.08,3,0,7,0.03
2014-9-17,67,51,38,52,45,37,100,83,47,30.09,29.97,2,0,5,0.00
2014-9-18,66,53,43,55,49,43,100,88,65,30.22,30.03,2,0,6,0.00